Time;durP1;ratioP1;P1;durP2;ratioP2;P2;SDS_P1;SDS_P2;PMS_P1;PMS_P2;Temp;Humidity;BMP_temperature;BMP_pressure;BME280_temperature;BME280_humidity;BME280_pressure;Samples;Min_cycle;Max_cycle;Signal;HPM_P1;HPM_P2
2023/06/22 00:00:12;;;;;;;9.33;8.00;;;19.60;99.90;;;;;;4976860;28;20955;-73
2023/06/22 00:02:39;;;;;;;9.50;8.60;;;19.60;99.90;;;;;;4976923;28;20473;-73
2023/06/22 00:05:08;;;;;;;9.27;8.27;;;19.60;99.90;;;;;;4978522;28;20532;-74
2023/06/22 00:07:35;;;;;;;9.03;8.23;;;19.60;99.90;;;;;;4977942;28;20792;-74
2023/06/22 00:10:02;;;;;;;8.60;7.63;;;19.60;99.90;;;;;;4977933;28;20544;-73
2023/06/22 00:12:29;;;;;;;13.77;9.30;;;19.60;99.90;;;;;;4976771;28;20469;-73
2023/06/22 00:14:56;;;;;;;10.10;8.90;;;19.60;99.90;;;;;;4979088;28;20485;-72
2023/06/22 00:17:23;;;;;;;11.60;9.53;;;19.60;99.90;;;;;;4983727;28;20570;-73
2023/06/22 00:19:53;;;;;;;11.13;8.80;;;19.60;99.90;;;;;;4982071;28;20540;-73
2023/06/22 00:22:28;;;;;;;10.30;9.40;;;19.60;99.90;;;;;;4977300;28;20453;-75
2023/06/22 00:24:56;;;;;;;9.87;8.50;;;19.60;99.90;;;;;;4977646;28;20457;-71
2023/06/22 00:27:22;;;;;;;10.63;9.63;;;19.60;99.90;;;;;;4987111;28;20447;-73
2023/06/22 00:29:49;;;;;;;10.93;9.80;;;19.60;99.90;;;;;;4979572;28;20534;-75
2023/06/22 00:32:17;;;;;;;9.53;8.60;;;19.60;99.90;;;;;;4978742;28;20522;-74
2023/06/22 00:34:43;;;;;;;12.57;9.60;;;19.60;99.90;;;;;;4982435;28;20492;-74
2023/06/22 00:37:12;;;;;;;12.30;9.17;;;19.70;99.90;;;;;;4974933;28;20570;-73
2023/06/22 00:39:40;;;;;;;11.10;10.00;;;19.60;99.90;;;;;;4986324;28;20441;-74
2023/06/22 00:42:07;;;;;;;10.20;9.33;;;19.60;99.90;;;;;;4984208;28;20438;-73
2023/06/22 00:44:34;;;;;;;10.20;9.30;;;19.60;99.90;;;;;;4982593;28;20492;-73
2023/06/22 00:47:01;;;;;;;12.00;10.30;;;19.60;99.90;;;;;;4983288;28;20464;-74
2023/06/22 00:49:28;;;;;;;10.17;9.23;;;19.60;99.90;;;;;;4973952;28;20537;-74
2023/06/22 00:51:55;;;;;;;9.37;8.43;;;19.60;99.90;;;;;;4984137;28;20802;-73
2023/06/22 00:54:25;;;;;;;11.27;10.20;;;19.60;99.90;;;;;;4979225;28;20481;-73
2023/06/22 00:56:56;;;;;;;13.83;10.90;;;19.60;99.90;;;;;;4979839;28;20491;-73
2023/06/22 00:59:24;;;;;;;12.53;9.57;;;19.60;99.90;;;;;;4982185;28;20454;-73
2023/06/22 01:01:51;;;;;;;11.70;10.47;;;19.60;99.90;;;;;;4980607;28;20458;-72
2023/06/22 01:04:18;;;;;;;14.80;10.70;;;19.60;99.90;;;;;;4983303;28;20484;-74
2023/06/22 01:06:55;;;;;;;11.17;9.90;;;19.60;99.90;;;;;;4981754;28;20523;-72
2023/06/22 01:09:28;;;;;;;11.90;10.77;;;19.70;99.90;;;;;;4985091;28;20492;-72
2023/06/22 01:12:02;;;;;;;13.93;10.97;;;19.60;99.90;;;;;;4980137;28;20446;-73
2023/06/22 01:14:33;;;;;;;12.60;11.50;;;19.60;99.90;;;;;;4984424;28;20453;-74
2023/06/22 01:17:02;;;;;;;12.67;11.47;;;19.60;99.90;;;;;;4978156;28;20485;-73
2023/06/22 01:19:41;;;;;;;14.17;11.50;;;19.50;99.90;;;;;;4978640;28;20450;-74
2023/06/22 01:22:15;;;;;;;14.00;12.63;;;19.50;99.90;;;;;;4970383;28;20453;-74
2023/06/22 01:24:52;;;;;;;16.43;14.53;;;19.50;99.90;;;;;;4979428;28;20461;-73
2023/06/22 01:27:32;;;;;;;16.60;14.10;;;19.50;99.90;;;;;;4983192;28;20442;-74
2023/06/22 01:30:05;;;;;;;14.60;13.10;;;19.40;99.90;;;;;;4979172;28;20448;-74
2023/06/22 01:32:35;;;;;;;15.60;14.10;;;19.40;99.90;;;;;;4984714;28;20489;-72
2023/06/22 01:35:05;;;;;;;17.57;13.57;;;19.30;99.90;;;;;;4983384;28;20460;-72
2023/06/22 01:37:33;;;;;;;16.57;13.53;;;19.30;99.90;;;;;;4980327;28;20564;-73
2023/06/22 01:40:01;;;;;;;15.07;13.67;;;19.20;99.90;;;;;;4986114;28;20521;-73
2023/06/22 01:42:29;;;;;;;15.70;14.17;;;19.20;99.90;;;;;;4977314;28;20465;-74
2023/06/22 01:44:57;;;;;;;17.47;15.87;;;19.10;99.90;;;;;;4988367;28;20538;-72
2023/06/22 01:47:28;;;;;;;18.43;16.53;;;19.10;99.90;;;;;;4979668;28;20532;-72
2023/06/22 01:49:55;;;;;;;17.53;15.80;;;19.10;99.90;;;;;;4988706;28;20454;-73
2023/06/22 01:52:23;;;;;;;16.03;14.53;;;19.10;99.90;;;;;;4981680;28;20509;-73
2023/06/22 01:54:49;;;;;;;16.30;14.77;;;19.00;99.90;;;;;;4991993;28;20486;-74
2023/06/22 01:57:29;;;;;;;18.00;16.20;;;19.00;99.90;;;;;;4986005;28;20572;-73
2023/06/22 02:00:02;;;;;;;17.30;15.47;;;18.90;99.90;;;;;;4989209;28;20427;-73
2023/06/22 02:02:38;;;;;;;18.37;16.50;;;18.90;99.90;;;;;;4985424;28;20479;-72
2023/06/22 02:05:10;;;;;;;16.37;14.73;;;18.80;99.90;;;;;;4986973;28;20957;-73
2023/06/22 02:07:42;;;;;;;17.83;15.93;;;18.70;99.90;;;;;;4990454;28;20465;-74
2023/06/22 02:10:12;;;;;;;20.13;17.67;;;18.70;99.90;;;;;;4983974;28;20441;-73
2023/06/22 02:12:40;;;;;;;18.23;16.43;;;18.60;99.90;;;;;;4983477;28;20505;-73
2023/06/22 02:15:09;;;;;;;18.27;16.50;;;18.60;99.90;;;;;;4981437;28;20789;-72
2023/06/22 02:17:37;;;;;;;18.47;16.30;;;18.70;99.90;;;;;;4977894;28;20996;-72
2023/06/22 02:20:08;;;;;;;17.57;15.57;;;18.60;99.90;;;;;;4978284;28;20451;-73
2023/06/22 02:22:35;;;;;;;16.60;14.83;;;18.50;99.90;;;;;;4974617;28;20532;-73
2023/06/22 02:25:02;;;;;;;16.63;15.03;;;18.50;99.90;;;;;;4983916;28;20539;-74
2023/06/22 02:27:29;;;;;;;15.27;13.87;;;18.50;99.90;;;;;;4979090;28;20509;-74
2023/06/22 02:29:56;;;;;;;14.77;13.37;;;18.50;99.90;;;;;;4975598;28;20446;-74
2023/06/22 02:32:23;;;;;;;17.43;15.73;;;18.50;99.90;;;;;;4983611;28;20548;-73
2023/06/22 02:34:51;;;;;;;17.70;15.80;;;18.50;99.90;;;;;;4979985;28;20861;-74
2023/06/22 02:37:18;;;;;;;16.63;14.97;;;18.40;99.90;;;;;;4983429;28;20822;-74
2023/06/22 02:39:45;;;;;;;16.57;14.97;;;18.40;99.90;;;;;;4980649;28;20836;-72
2023/06/22 02:42:12;;;;;;;16.77;14.03;;;18.40;99.90;;;;;;4985083;28;20535;-74
2023/06/22 02:44:39;;;;;;;15.33;13.73;;;18.40;99.90;;;;;;4982905;28;20462;-74
2023/06/22 02:47:06;;;;;;;15.90;14.10;;;18.50;99.90;;;;;;4982562;28;20863;-74
2023/06/22 02:49:33;;;;;;;15.50;13.07;;;18.50;99.90;;;;;;4987201;28;20455;-74
2023/06/22 02:52:05;;;;;;;17.93;14.23;;;18.50;99.90;;;;;;4980202;28;20454;-75
2023/06/22 02:54:33;;;;;;;14.30;12.87;;;18.50;99.90;;;;;;4980749;28;20501;-73
2023/06/22 02:57:02;;;;;;;14.97;13.57;;;18.50;99.90;;;;;;4979603;28;20473;-74
2023/06/22 02:59:29;;;;;;;19.27;16.20;;;18.50;99.90;;;;;;4980602;28;20480;-75
2023/06/22 03:01:56;;;;;;;17.17;15.27;;;18.50;99.90;;;;;;4980090;28;20528;-74
2023/06/22 03:04:23;;;;;;;16.53;14.00;;;18.60;99.90;;;;;;4984661;28;20812;-74
2023/06/22 03:06:50;;;;;;;15.80;14.37;;;18.50;99.90;;;;;;4978130;28;20446;-74
2023/06/22 03:09:20;;;;;;;17.60;16.00;;;18.50;99.90;;;;;;4978827;28;20446;-74
2023/06/22 03:11:47;;;;;;;18.83;16.83;;;18.50;99.90;;;;;;4971322;28;20536;-74
2023/06/22 03:14:14;;;;;;;16.50;14.90;;;18.60;99.90;;;;;;4980347;28;20476;-75
2023/06/22 03:16:41;;;;;;;17.60;15.50;;;18.60;99.90;;;;;;4983656;28;20467;-74
2023/06/22 03:19:08;;;;;;;17.97;16.17;;;18.60;99.90;;;;;;4983118;28;20437;-74
2023/06/22 03:21:37;;;;;;;18.13;16.43;;;18.60;99.90;;;;;;4979886;28;20983;-73
2023/06/22 03:24:06;;;;;;;18.67;16.73;;;18.60;99.90;;;;;;4980728;28;20465;-72
2023/06/22 03:26:36;;;;;;;18.20;15.30;;;18.60;99.90;;;;;;4986418;28;20473;-74
2023/06/22 03:29:03;;;;;;;18.50;16.70;;;18.70;99.90;;;;;;4986694;28;22170;-73
2023/06/22 03:31:31;;;;;;;18.80;16.90;;;18.70;99.90;;;;;;4977014;28;20438;-74
2023/06/22 03:34:03;;;;;;;20.57;18.40;;;18.80;99.90;;;;;;4969698;28;20959;-73
2023/06/22 03:36:30;;;;;;;18.03;16.13;;;18.80;99.90;;;;;;4978267;28;20453;-74
2023/06/22 03:38:59;;;;;;;20.37;17.67;;;18.90;99.90;;;;;;4982934;28;20478;-73
2023/06/22 03:41:26;;;;;;;21.43;17.30;;;18.90;99.90;;;;;;4977885;28;20541;-74
2023/06/22 03:43:54;;;;;;;20.70;18.70;;;18.90;99.90;;;;;;4981056;28;20894;-72
2023/06/22 03:46:21;;;;;;;17.37;15.70;;;18.90;99.90;;;;;;4978299;28;20457;-74
2023/06/22 03:48:48;;;;;;;19.63;17.63;;;18.90;99.90;;;;;;4976412;28;20446;-74
2023/06/22 03:51:15;;;;;;;21.60;19.30;;;19.00;99.90;;;;;;4985938;28;20535;-74
2023/06/22 03:53:42;;;;;;;25.17;20.47;;;19.00;99.90;;;;;;4979463;28;20582;-72
2023/06/22 03:56:09;;;;;;;19.73;17.73;;;19.10;99.90;;;;;;4986132;28;20528;-75
2023/06/22 03:58:42;;;;;;;19.43;17.40;;;19.10;99.90;;;;;;4979506;28;20562;-73
2023/06/22 04:01:11;;;;;;;22.03;19.70;;;19.10;99.90;;;;;;4986444;28;20569;-74
2023/06/22 04:03:38;;;;;;;25.43;22.83;;;19.10;99.90;;;;;;4987129;28;20472;-75
2023/06/22 04:06:06;;;;;;;22.10;19.30;;;19.10;99.90;;;;;;4983663;28;20444;-74
2023/06/22 04:08:33;;;;;;;22.10;19.80;;;19.20;99.90;;;;;;4981488;28;20533;-74
2023/06/22 04:10:59;;;;;;;19.90;17.33;;;19.30;99.90;;;;;;4983303;28;20560;-74
2023/06/22 04:13:27;;;;;;;18.83;16.83;;;19.30;99.90;;;;;;4977389;28;20517;-73
2023/06/22 04:15:54;;;;;;;20.73;18.03;;;19.40;99.90;;;;;;4984569;28;20458;-75
2023/06/22 04:18:23;;;;;;;20.60;18.07;;;19.50;99.90;;;;;;4989243;28;20524;-75
2023/06/22 04:20:51;;;;;;;22.33;18.27;;;19.60;99.90;;;;;;4979230;28;20452;-75
2023/06/22 04:23:18;;;;;;;20.43;18.33;;;19.70;99.90;;;;;;4975448;28;20473;-74
2023/06/22 04:25:47;;;;;;;19.80;17.77;;;19.80;99.90;;;;;;4983346;28;20453;-76
2023/06/22 04:28:14;;;;;;;19.50;17.50;;;19.90;99.90;;;;;;4988192;28;20512;-74
2023/06/22 04:30:46;;;;;;;20.77;18.67;;;19.90;99.90;;;;;;4987125;28;20445;-75
2023/06/22 04:33:13;;;;;;;23.97;21.50;;;20.10;99.90;;;;;;4988125;28;20986;-73
2023/06/22 04:35:48;;;;;;;21.50;19.27;;;20.20;99.90;;;;;;4987632;28;20456;-72
2023/06/22 04:38:15;;;;;;;22.77;20.37;;;20.30;99.90;;;;;;4993864;28;20563;-74
2023/06/22 04:40:42;;;;;;;21.33;19.23;;;20.40;99.90;;;;;;4990245;28;20529;-75
2023/06/22 04:43:09;;;;;;;21.43;19.30;;;20.50;99.90;;;;;;4985722;28;20512;-74
2023/06/22 04:45:37;;;;;;;21.43;19.13;;;20.50;99.90;;;;;;4983700;28;20454;-74
2023/06/22 04:48:05;;;;;;;23.63;21.13;;;20.50;99.90;;;;;;4982581;28;20437;-73
2023/06/22 04:50:33;;;;;;;22.43;20.13;;;20.80;99.90;;;;;;4975113;28;20536;-73
2023/06/22 04:53:05;;;;;;;25.50;22.67;;;21.10;99.90;;;;;;4986029;28;20474;-73
2023/06/22 04:55:32;;;;;;;25.47;22.90;;;21.30;99.90;;;;;;4980929;28;20459;-73
2023/06/22 04:58:04;;;;;;;25.93;23.13;;;21.60;99.90;;;;;;4987894;28;20830;-73
2023/06/22 05:00:35;;;;;;;21.93;19.57;;;21.90;99.90;;;;;;4981926;28;20540;-71
2023/06/22 05:03:03;;;;;;;22.60;19.37;;;22.40;99.90;;;;;;4984648;28;20551;-71
2023/06/22 05:05:30;;;;;;;21.43;19.40;;;22.90;99.90;;;;;;4984597;28;20553;-71
2023/06/22 05:08:00;;;;;;;23.50;19.40;;;23.10;99.90;;;;;;4985207;28;20475;-73
2023/06/22 05:10:29;;;;;;;22.67;19.40;;;23.30;99.90;;;;;;4984163;28;20464;-75
2023/06/22 05:12:56;;;;;;;20.20;18.10;;;23.30;99.90;;;;;;4979999;28;20471;-74
2023/06/22 05:15:27;;;;;;;20.10;17.30;;;23.60;99.90;;;;;;4990134;28;20509;-73
2023/06/22 05:17:54;;;;;;;20.53;18.47;;;24.00;99.90;;;;;;4979177;28;20572;-75
2023/06/22 05:20:21;;;;;;;19.60;17.50;;;24.40;99.90;;;;;;4979703;28;20442;-74
2023/06/22 05:22:48;;;;;;;21.40;19.30;;;25.00;99.90;;;;;;4984867;28;20477;-73
2023/06/22 05:25:15;;;;;;;18.83;16.80;;;25.80;99.90;;;;;;4985713;28;20531;-74
2023/06/22 05:27:44;;;;;;;19.47;17.47;;;26.30;99.90;;;;;;4981731;28;20867;-75
2023/06/22 05:30:11;;;;;;;19.07;17.23;;;26.90;99.90;;;;;;4981231;28;20434;-74
2023/06/22 05:32:39;;;;;;;18.93;17.10;;;27.60;98.10;;;;;;4983125;28;20539;-76
2023/06/22 05:35:07;;;;;;;18.37;16.57;;;28.20;95.40;;;;;;4981634;28;20449;-74
2023/06/22 05:37:34;;;;;;;17.47;15.77;;;28.50;93.90;;;;;;4981881;28;21024;-75
2023/06/22 05:40:01;;;;;;;16.00;14.33;;;29.10;92.10;;;;;;4981881;28;20532;-74
2023/06/22 05:42:28;;;;;;;17.60;15.70;;;29.90;91.10;;;;;;4984905;28;20469;-73
2023/06/22 05:44:58;;;;;;;16.00;13.90;;;30.40;89.20;;;;;;4981292;28;20916;-72
2023/06/22 05:47:25;;;;;;;13.37;11.97;;;30.80;87.70;;;;;;4984468;28;20611;-74
2023/06/22 05:49:52;;;;;;;13.40;12.10;;;31.40;85.80;;;;;;4978543;28;20455;-71
2023/06/22 05:52:19;;;;;;;17.90;13.77;;;31.70;83.90;;;;;;4988065;28;20454;-74
2023/06/22 05:54:46;;;;;;;14.90;12.63;;;32.20;82.30;;;;;;4982899;28;20527;-75
2023/06/22 05:57:21;;;;;;;13.13;11.83;;;32.20;80.90;;;;;;4981059;28;20456;-74
2023/06/22 05:59:48;;;;;;;14.20;11.93;;;32.50;79.40;;;;;;4977650;28;20465;-73
2023/06/22 06:02:17;;;;;;;17.23;11.27;;;32.70;79.50;;;;;;4976072;28;20508;-75
2023/06/22 06:04:43;;;;;;;14.47;12.97;;;33.10;78.30;;;;;;4982469;28;20524;-73
2023/06/22 06:07:10;;;;;;;14.63;11.77;;;33.60;77.40;;;;;;4982661;28;20448;-74
2023/06/22 06:09:37;;;;;;;12.17;10.97;;;34.00;75.20;;;;;;4978193;28;20528;-75
2023/06/22 06:12:05;;;;;;;14.23;11.17;;;34.30;74.90;;;;;;4981848;28;20442;-75
2023/06/22 06:14:32;;;;;;;10.73;9.50;;;34.40;73.70;;;;;;4976743;28;20922;-75
2023/06/22 06:16:59;;;;;;;14.03;9.80;;;33.40;74.40;;;;;;4983468;28;20482;-76
2023/06/22 06:19:27;;;;;;;11.10;10.00;;;32.50;75.00;;;;;;4976038;28;20568;-76
2023/06/22 06:21:54;;;;;;;9.67;8.67;;;31.60;77.80;;;;;;4987953;28;20532;-78
2023/06/22 06:24:21;;;;;;;10.60;9.50;;;30.90;79.40;;;;;;4973095;28;20466;-76
2023/06/22 06:26:48;;;;;;;10.57;9.57;;;30.30;80.80;;;;;;4980478;28;20500;-75
2023/06/22 06:29:16;;;;;;;11.97;10.73;;;29.60;82.60;;;;;;4979611;28;20503;-75
2023/06/22 06:31:43;;;;;;;10.47;9.20;;;29.30;84.20;;;;;;4982450;28;20832;-76
2023/06/22 06:34:10;;;;;;;10.67;9.50;;;29.40;84.80;;;;;;4985759;28;20912;-76
2023/06/22 06:36:38;;;;;;;10.03;9.13;;;29.90;85.00;;;;;;4976690;28;20746;-75
2023/06/22 06:39:05;;;;;;;14.13;10.80;;;30.60;84.00;;;;;;4981063;28;20489;-78
2023/06/22 06:41:32;;;;;;;8.93;8.10;;;31.40;82.50;;;;;;4983289;28;20457;-77
2023/06/22 06:44:00;;;;;;;9.97;8.90;;;32.10;80.70;;;;;;4985167;28;20583;-74
2023/06/22 06:46:27;;;;;;;9.90;8.90;;;32.20;79.50;;;;;;4978470;28;20456;-75
2023/06/22 06:48:54;;;;;;;10.17;9.17;;;32.20;79.60;;;;;;4984085;28;20441;-75
2023/06/22 06:51:21;;;;;;;9.43;8.63;;;32.70;78.50;;;;;;4983590;28;20494;-77
2023/06/22 06:53:49;;;;;;;12.70;9.93;;;33.40;77.30;;;;;;4981548;28;20560;-74
2023/06/22 06:56:16;;;;;;;13.13;9.77;;;33.80;75.70;;;;;;4977635;28;20448;-75
2023/06/22 06:58:45;;;;;;;10.67;9.70;;;34.20;74.70;;;;;;4976812;28;21062;-74
2023/06/22 07:01:12;;;;;;;9.37;8.47;;;34.80;73.40;;;;;;4977051;28;20452;-74
2023/06/22 07:03:39;;;;;;;9.90;8.90;;;35.20;71.30;;;;;;4979736;28;20472;-76
2023/06/22 07:06:06;;;;;;;11.80;9.90;;;36.00;70.30;;;;;;4982539;28;20445;-73
2023/06/22 07:08:33;;;;;;;9.90;8.90;;;36.40;69.20;;;;;;4977424;28;20441;-77
2023/06/22 07:11:01;;;;;;;8.07;7.40;;;36.40;68.30;;;;;;4981136;28;20838;-76
2023/06/22 07:13:28;;;;;;;8.83;7.93;;;36.70;67.20;;;;;;4971950;28;21042;-74
2023/06/22 07:15:55;;;;;;;8.60;7.40;;;36.90;66.00;;;;;;4978725;28;20458;-76
2023/06/22 07:18:22;;;;;;;9.10;7.53;;;37.10;65.10;;;;;;4979450;28;20589;-74
2023/06/22 07:20:50;;;;;;;8.50;6.73;;;36.70;65.20;;;;;;4986295;28;20491;-75
2023/06/22 07:23:18;;;;;;;8.37;7.47;;;36.40;65.70;;;;;;4980913;28;20458;-77
2023/06/22 07:25:45;;;;;;;6.40;5.80;;;36.10;66.90;;;;;;4985278;28;20452;-75
2023/06/22 07:28:13;;;;;;;8.33;6.40;;;36.00;66.20;;;;;;4979245;28;20512;-75
2023/06/22 07:30:40;;;;;;;7.13;6.30;;;36.10;66.10;;;;;;4980523;28;20446;-75
2023/06/22 07:33:08;;;;;;;6.30;5.80;;;36.30;65.50;;;;;;4986451;28;20555;-77
2023/06/22 07:35:35;;;;;;;7.53;6.70;;;36.50;64.70;;;;;;4980628;28;20924;-75
2023/06/22 07:38:02;;;;;;;8.03;6.80;;;36.70;64.50;;;;;;4985373;28;20490;-76
2023/06/22 07:40:29;;;;;;;7.47;6.77;;;36.80;63.40;;;;;;4975839;28;20485;-74
2023/06/22 07:42:56;;;;;;;7.10;6.40;;;37.40;62.30;;;;;;4976640;28;20859;-73
2023/06/22 07:45:24;;;;;;;8.00;6.10;;;37.50;63.30;;;;;;4976994;28;20432;-75
2023/06/22 07:47:51;;;;;;;8.10;7.40;;;37.40;62.40;;;;;;4980526;28;20532;-74
2023/06/22 07:50:18;;;;;;;8.07;7.10;;;37.70;62.10;;;;;;4975941;28;20482;-75
2023/06/22 07:52:45;;;;;;;7.90;7.10;;;37.60;62.50;;;;;;4979249;28;20472;-75
2023/06/22 07:55:12;;;;;;;9.20;6.33;;;37.70;62.00;;;;;;4981469;28;20445;-72
2023/06/22 07:57:41;;;;;;;7.53;6.83;;;37.60;63.00;;;;;;4982011;28;20525;-74
2023/06/22 08:00:15;;;;;;;8.37;6.70;;;37.60;62.50;;;;;;4985026;28;20517;-75
2023/06/22 08:02:46;;;;;;;7.50;6.80;;;37.20;63.00;;;;;;4979170;28;20484;-74
2023/06/22 08:05:14;;;;;;;7.23;6.63;;;37.40;62.10;;;;;;4975601;28;20907;-75
2023/06/22 08:07:41;;;;;;;9.93;7.33;;;37.00;62.20;;;;;;4981195;28;20444;-76
2023/06/22 08:10:12;;;;;;;9.03;6.80;;;36.20;64.50;;;;;;4975015;28;20533;-74
2023/06/22 08:12:39;;;;;;;8.03;6.20;;;35.70;66.00;;;;;;4981531;28;20464;-76
2023/06/22 08:15:09;;;;;;;9.57;6.67;;;35.60;64.90;;;;;;4987048;28;20532;-77
2023/06/22 08:17:37;;;;;;;9.63;7.00;;;35.80;65.50;;;;;;4978074;28;20524;-75
2023/06/22 08:20:09;;;;;;;9.03;7.03;;;36.20;64.60;;;;;;4984478;28;20512;-75
2023/06/22 08:22:37;;;;;;;7.77;6.20;;;36.30;64.80;;;;;;4981843;28;20551;-76
2023/06/22 08:25:06;;;;;;;9.50;7.17;;;37.00;64.30;;;;;;4980061;28;20449;-75
2023/06/22 08:27:34;;;;;;;7.27;6.60;;;37.60;61.90;;;;;;4979690;28;20453;-74
2023/06/22 08:30:01;;;;;;;6.60;6.00;;;37.80;60.20;;;;;;4983724;28;20441;-75
2023/06/22 08:32:28;;;;;;;7.70;5.90;;;37.80;60.70;;;;;;4977167;28;20496;-77
2023/06/22 08:34:55;;;;;;;7.77;6.70;;;37.50;60.70;;;;;;4983664;28;20456;-75
2023/06/22 08:37:30;;;;;;;6.30;5.70;;;37.50;60.60;;;;;;4983328;28;20478;-72
2023/06/22 08:39:57;;;;;;;6.00;5.20;;;38.10;60.30;;;;;;4981799;28;20507;-75
2023/06/22 08:42:25;;;;;;;6.27;5.70;;;38.20;59.80;;;;;;4976684;28;20549;-73
2023/06/22 08:44:52;;;;;;;5.63;5.00;;;38.40;59.40;;;;;;4980778;28;20514;-75
2023/06/22 08:47:20;;;;;;;6.33;5.77;;;38.50;58.00;;;;;;4981874;28;20925;-76
2023/06/22 08:49:47;;;;;;;6.63;6.00;;;38.10;58.00;;;;;;4978885;28;20454;-76
2023/06/22 08:52:15;;;;;;;5.87;5.37;;;37.80;58.70;;;;;;4976123;28;20449;-76
2023/06/22 08:54:43;;;;;;;6.13;4.80;;;37.10;58.20;;;;;;4981373;28;20460;-72
2023/06/22 08:57:10;;;;;;;5.80;5.20;;;37.50;58.50;;;;;;4975138;28;20852;-70
2023/06/22 08:59:37;;;;;;;6.30;5.50;;;37.30;58.20;;;;;;4980043;28;20490;-70
2023/06/22 09:02:05;;;;;;;6.20;5.73;;;37.30;58.20;;;;;;4980063;28;20531;-71
2023/06/22 09:04:34;;;;;;;6.30;4.70;;;36.90;58.40;;;;;;4981773;28;20536;-71
2023/06/22 09:07:01;;;;;;;6.40;5.73;;;37.30;58.80;;;;;;4975873;28;20461;-71
2023/06/22 09:09:28;;;;;;;8.13;5.83;;;37.40;58.20;;;;;;4978769;28;20452;-70
2023/06/22 09:11:56;;;;;;;5.87;5.37;;;37.30;59.00;;;;;;4979026;28;20816;-71
2023/06/22 09:14:23;;;;;;;6.27;5.70;;;37.30;58.60;;;;;;4982511;28;20515;-70
2023/06/22 09:16:50;;;;;;;6.13;5.33;;;37.50;58.00;;;;;;4981520;28;20623;-71
2023/06/22 09:19:18;;;;;;;6.27;5.67;;;37.30;58.40;;;;;;4984058;28;20620;-72
2023/06/22 09:21:45;;;;;;;9.17;7.13;;;37.10;58.40;;;;;;4983414;28;20521;-70
2023/06/22 09:24:12;;;;;;;6.90;5.53;;;36.90;58.60;;;;;;4983498;28;20976;-71
2023/06/22 09:26:39;;;;;;;5.80;5.30;;;36.60;59.60;;;;;;4986860;28;20500;-72
2023/06/22 09:29:08;;;;;;;10.40;6.07;;;36.60;59.60;;;;;;4985474;28;20445;-72
2023/06/22 09:31:34;;;;;;;6.63;6.07;;;36.60;60.30;;;;;;4985706;28;20606;-72
2023/06/22 09:34:01;;;;;;;6.90;6.37;;;36.60;59.80;;;;;;4982836;28;20504;-72
2023/06/22 09:36:28;;;;;;;9.07;7.77;;;36.30;60.50;;;;;;4985390;28;20531;-72
2023/06/22 09:38:58;;;;;;;7.60;6.90;;;36.00;62.30;;;;;;4983862;28;20916;-71
2023/06/22 09:41:25;;;;;;;7.20;6.10;;;35.80;62.70;;;;;;4980799;28;20476;-71
2023/06/22 09:43:52;;;;;;;7.10;6.20;;;36.10;62.50;;;;;;4986645;28;20479;-69
2023/06/22 09:46:24;;;;;;;7.47;6.77;;;36.20;62.20;;;;;;4983360;28;20445;-72
2023/06/22 09:48:51;;;;;;;7.33;6.60;;;36.00;62.00;;;;;;4975402;28;20455;-70
2023/06/22 09:51:19;;;;;;;8.60;7.00;;;35.60;63.20;;;;;;4979671;28;20444;-71
2023/06/22 09:53:46;;;;;;;12.00;7.40;;;35.50;63.10;;;;;;4974138;28;20552;-70
2023/06/22 09:56:14;;;;;;;7.10;6.50;;;35.10;63.70;;;;;;4981398;28;20454;-71
2023/06/22 09:58:42;;;;;;;9.23;6.60;;;34.70;64.60;;;;;;4980082;28;20464;-71
2023/06/22 10:01:10;;;;;;;10.10;7.07;;;34.30;65.60;;;;;;4977696;28;20449;-71
2023/06/22 10:03:38;;;;;;;8.90;7.50;;;34.30;66.80;;;;;;4987563;28;20460;-70
2023/06/22 10:06:05;;;;;;;6.37;5.80;;;34.50;65.80;;;;;;4984524;28;20447;-71
2023/06/22 10:08:32;;;;;;;7.73;7.00;;;34.60;66.60;;;;;;4983912;28;20446;-71
2023/06/22 10:10:59;;;;;;;9.20;6.57;;;34.80;65.80;;;;;;4975909;28;21015;-73
2023/06/22 10:13:26;;;;;;;10.27;5.80;;;35.10;65.70;;;;;;4982291;28;20523;-71
2023/06/22 10:15:53;;;;;;;7.40;6.57;;;35.40;65.50;;;;;;4987724;28;20992;-71
2023/06/22 10:18:20;;;;;;;10.73;7.33;;;35.40;65.00;;;;;;4980764;28;20874;-70
2023/06/22 10:20:51;;;;;;;8.03;7.33;;;34.90;65.80;;;;;;4980129;28;20837;-71
2023/06/22 10:23:18;;;;;;;8.73;7.00;;;34.20;65.70;;;;;;4975874;28;20844;-70
2023/06/22 10:25:45;;;;;;;8.97;6.57;;;33.50;67.60;;;;;;4985741;28;20455;-73
2023/06/22 10:28:12;;;;;;;17.03;7.30;;;33.10;68.80;;;;;;4976638;28;20525;-72
2023/06/22 10:30:41;;;;;;;8.17;5.77;;;33.40;70.10;;;;;;4978737;28;20454;-73
2023/06/22 10:33:08;;;;;;;9.60;6.00;;;33.90;69.20;;;;;;4983149;28;20465;-71
2023/06/22 10:35:34;;;;;;;7.00;6.40;;;34.50;68.00;;;;;;4975792;28;20941;-71
2023/06/22 10:38:03;;;;;;;6.60;6.00;;;34.80;66.90;;;;;;4984898;28;20541;-72
2023/06/22 10:40:30;;;;;;;7.37;6.67;;;34.60;66.70;;;;;;4980945;28;20852;-71
2023/06/22 10:42:56;;;;;;;7.93;6.70;;;34.00;66.90;;;;;;4985303;28;20842;-70
2023/06/22 10:45:24;;;;;;;7.53;6.40;;;33.60;69.40;;;;;;4983304;28;20454;-71
2023/06/22 10:47:51;;;;;;;6.20;5.60;;;33.50;69.20;;;;;;4984475;28;20518;-70
2023/06/22 10:50:20;;;;;;;6.77;6.07;;;33.10;69.70;;;;;;4984268;28;20450;-71
2023/06/22 10:52:46;;;;;;;6.00;5.50;;;32.90;71.10;;;;;;4983452;28;20474;-73
2023/06/22 10:55:15;;;;;;;6.00;5.50;;;32.90;71.70;;;;;;4979529;28;20540;-71
2023/06/22 10:57:44;;;;;;;6.90;6.30;;;33.00;71.50;;;;;;4985612;28;20866;-71
2023/06/22 11:00:12;;;;;;;11.63;6.50;;;32.60;70.80;;;;;;4977769;28;20481;-70
2023/06/22 11:02:38;;;;;;;7.47;6.67;;;32.30;71.40;;;;;;4980262;28;20472;-71
2023/06/22 11:05:06;;;;;;;7.37;6.60;;;32.00;72.30;;;;;;4984965;28;20540;-71
2023/06/22 11:07:33;;;;;;;6.70;6.20;;;31.70;72.30;;;;;;4978961;28;20477;-72
2023/06/22 11:10:00;;;;;;;7.53;6.43;;;31.50;73.70;;;;;;4982250;28;20450;-72
2023/06/22 11:12:28;;;;;;;7.00;6.33;;;31.90;73.70;;;;;;4979029;28;20466;-70
2023/06/22 11:14:57;;;;;;;6.90;6.20;;;32.30;73.30;;;;;;4984032;28;20460;-72
2023/06/22 11:17:24;;;;;;;10.23;6.57;;;32.70;72.70;;;;;;4981673;28;20579;-71
2023/06/22 11:19:51;;;;;;;5.80;5.30;;;32.80;71.30;;;;;;4982126;28;20476;-70
2023/06/22 11:22:18;;;;;;;10.63;5.80;;;32.90;71.70;;;;;;4980742;28;20450;-71
2023/06/22 11:24:45;;;;;;;10.27;5.93;;;33.00;70.90;;;;;;4980672;28;20442;-72
2023/06/22 11:27:12;;;;;;;7.10;6.50;;;33.00;70.60;;;;;;4983361;28;20449;-71
2023/06/22 11:29:40;;;;;;;7.10;6.50;;;32.80;70.20;;;;;;4976155;28;20453;-73
2023/06/22 11:32:08;;;;;;;6.50;6.00;;;32.30;71.40;;;;;;4982873;28;20473;-71
2023/06/22 11:34:35;;;;;;;7.70;6.23;;;31.90;72.20;;;;;;4980444;28;20441;-72
2023/06/22 11:37:02;;;;;;;6.43;5.83;;;31.80;74.00;;;;;;4977410;28;20449;-70
2023/06/22 11:39:29;;;;;;;5.70;5.20;;;31.80;74.30;;;;;;4983775;28;20571;-72
2023/06/22 11:41:56;;;;;;;6.57;5.90;;;31.90;73.60;;;;;;4982018;28;20449;-70
2023/06/22 11:44:23;;;;;;;7.93;5.93;;;32.00;74.80;;;;;;4982864;28;20472;-72
2023/06/22 11:46:51;;;;;;;6.20;5.60;;;32.20;74.40;;;;;;4978957;28;20445;-71
2023/06/22 11:49:18;;;;;;;7.10;6.40;;;32.30;73.90;;;;;;4983511;28;21020;-72
2023/06/22 11:51:45;;;;;;;7.53;6.83;;;32.20;73.90;;;;;;4978195;28;20449;-72
2023/06/22 11:54:12;;;;;;;6.27;5.67;;;32.00;73.80;;;;;;4981774;28;20909;-70
2023/06/22 11:56:38;;;;;;;7.17;6.57;;;32.00;74.50;;;;;;4973204;28;20460;-71
2023/06/22 11:59:06;;;;;;;7.03;6.00;;;31.90;73.90;;;;;;4980695;28;20545;-71
2023/06/22 12:01:33;;;;;;;8.13;6.77;;;31.80;74.10;;;;;;4979192;28;20484;-71
2023/06/22 12:04:05;;;;;;;6.77;6.17;;;31.80;74.10;;;;;;4980725;28;20469;-70
2023/06/22 12:06:33;;;;;;;6.60;6.00;;;31.60;74.60;;;;;;4982152;28;20920;-71
2023/06/22 12:09:00;;;;;;;5.17;4.77;;;31.80;75.10;;;;;;4981742;28;20476;-70
2023/06/22 12:11:26;;;;;;;6.10;5.60;;;32.10;74.60;;;;;;4972741;28;20856;-71
2023/06/22 12:13:53;;;;;;;6.20;5.43;;;32.30;74.40;;;;;;4981097;28;20465;-70
2023/06/22 12:16:21;;;;;;;6.20;5.60;;;32.30;72.80;;;;;;4978509;28;20445;-71
2023/06/22 12:18:48;;;;;;;10.40;6.67;;;32.10;72.60;;;;;;4980544;28;20452;-71
2023/06/22 12:21:16;;;;;;;7.00;6.40;;;32.10;72.30;;;;;;4976760;28;20580;-70
2023/06/22 12:23:43;;;;;;;6.10;5.13;;;31.90;73.50;;;;;;4981899;28;20494;-72
2023/06/22 12:26:10;;;;;;;5.80;5.30;;;31.90;74.40;;;;;;4984295;28;20449;-71
2023/06/22 12:28:37;;;;;;;6.30;5.80;;;32.00;74.60;;;;;;4978281;28;20540;-69
2023/06/22 12:31:04;;;;;;;5.63;5.13;;;32.10;73.90;;;;;;4981686;28;20524;-71
2023/06/22 12:33:31;;;;;;;7.43;5.60;;;32.00;72.60;;;;;;4978260;28;20576;-71
2023/06/22 12:35:58;;;;;;;7.07;6.47;;;31.60;73.30;;;;;;4987148;28;20861;-70
2023/06/22 12:38:26;;;;;;;6.47;5.67;;;31.50;74.00;;;;;;4981112;28;20449;-71
2023/06/22 12:40:53;;;;;;;5.97;5.43;;;31.30;74.90;;;;;;4979416;28;21082;-70